sensor_id;sensor_type;location;lat;lon;timestamp;P1;P4;P2;P0;N10;N4;N25;N1;N05;TS
63316;SPS30;49822;41.468;13.560;2023-09-12T00:02:11;7.35;;4.00;;;;;;;
63316;SPS30;49822;41.468;13.560;2023-09-12T00:04:37;7.22;;3.90;;;;;;;
63316;SPS30;49822;41.468;13.560;2023-09-12T00:07:03;10.68;;4.00;;;;;;;
63316;SPS30;49822;41.468;13.560;2023-09-12T00:09:29;8.13;;3.90;;;;;;;
63316;SPS30;49822;41.468;13.560;2023-09-12T00:11:55;7.75;;3.88;;;;;;;
63316;SPS30;49822;41.468;13.560;2023-09-12T00:14:21;7.55;;3.75;;;;;;;
63316;SPS30;49822;41.468;13.560;2023-09-12T00:16:47;6.18;;3.65;;;;;;;
63316;SPS30;49822;41.468;13.560;2023-09-12T00:19:13;10.57;;4.28;;;;;;;
63316;SPS30;49822;41.468;13.560;2023-09-12T00:21:39;9.93;;4.18;;;;;;;
63316;SPS30;49822;41.468;13.560;2023-09-12T00:24:06;8.90;;4.22;;;;;;;
63316;SPS30;49822;41.468;13.560;2023-09-12T00:26:33;8.15;;3.80;;;;;;;
63316;SPS30;49822;41.468;13.560;2023-09-12T00:28:59;11.95;;4.10;;;;;;;
63316;SPS30;49822;41.468;13.560;2023-09-12T00:31:25;9.05;;4.25;;;;;;;
63316;SPS30;49822;41.468;13.560;2023-09-12T00:33:51;5.88;;3.90;;;;;;;
63316;SPS30;49822;41.468;13.560;2023-09-12T00:36:17;7.25;;4.30;;;;;;;
63316;SPS30;49822;41.468;13.560;2023-09-12T00:38:43;9.43;;4.15;;;;;;;
63316;SPS30;49822;41.468;13.560;2023-09-12T00:41:09;10.77;;4.30;;;;;;;
63316;SPS30;49822;41.468;13.560;2023-09-12T00:43:35;9.90;;5.10;;;;;;;
63316;SPS30;49822;41.468;13.560;2023-09-12T00:46:01;8.30;;4.45;;;;;;;
63316;SPS30;49822;41.468;13.560;2023-09-12T00:48:27;11.07;;4.50;;;;;;;
63316;SPS30;49822;41.468;13.560;2023-09-12T00:50:54;7.10;;4.28;;;;;;;
63316;SPS30;49822;41.468;13.560;2023-09-12T00:53:21;9.57;;5.40;;;;;;;
63316;SPS30;49822;41.468;13.560;2023-09-12T00:55:52;9.65;;4.93;;;;;;;
63316;SPS30;49822;41.468;13.560;2023-09-12T00:58:23;9.02;;4.78;;;;;;;
63316;SPS30;49822;41.468;13.560;2023-09-12T01:03:44;13.35;;5.40;;;;;;;
63316;SPS30;49822;41.468;13.560;2023-09-12T01:06:10;10.07;;3.95;;;;;;;
63316;SPS30;49822;41.468;13.560;2023-09-12T01:08:37;10.55;;4.53;;;;;;;
63316;SPS30;49822;41.468;13.560;2023-09-12T01:11:03;8.20;;4.72;;;;;;;
63316;SPS30;49822;41.468;13.560;2023-09-12T01:13:30;14.05;;4.75;;;;;;;
63316;SPS30;49822;41.468;13.560;2023-09-12T01:15:59;8.65;;4.80;;;;;;;
63316;SPS30;49822;41.468;13.560;2023-09-12T01:18:25;8.88;;4.32;;;;;;;
63316;SPS30;49822;41.468;13.560;2023-09-12T01:29:10;6.28;;3.95;;;;;;;
63316;SPS30;49822;41.468;13.560;2023-09-12T01:31:39;10.38;;4.65;;;;;;;
63316;SPS30;49822;41.468;13.560;2023-09-12T01:34:10;8.15;;4.55;;;;;;;
63316;SPS30;49822;41.468;13.560;2023-09-12T01:36:37;7.30;;4.45;;;;;;;
63316;SPS30;49822;41.468;13.560;2023-09-12T01:39:03;11.07;;4.15;;;;;;;
63316;SPS30;49822;41.468;13.560;2023-09-12T01:41:30;10.98;;5.20;;;;;;;
63316;SPS30;49822;41.468;13.560;2023-09-12T01:44:00;10.13;;4.53;;;;;;;
63316;SPS30;49822;41.468;13.560;2023-09-12T01:46:27;7.82;;4.72;;;;;;;
63316;SPS30;49822;41.468;13.560;2023-09-12T01:48:56;7.93;;4.45;;;;;;;
63316;SPS30;49822;41.468;13.560;2023-09-12T01:51:23;11.93;;4.72;;;;;;;
63316;SPS30;49822;41.468;13.560;2023-09-12T01:53:50;7.78;;4.30;;;;;;;
63316;SPS30;49822;41.468;13.560;2023-09-12T01:56:22;9.10;;4.22;;;;;;;
63316;SPS30;49822;41.468;13.560;2023-09-12T01:58:50;9.15;;4.18;;;;;;;
63316;SPS30;49822;41.468;13.560;2023-09-12T02:01:17;8.18;;3.95;;;;;;;
63316;SPS30;49822;41.468;13.560;2023-09-12T02:03:43;9.48;;4.35;;;;;;;
63316;SPS30;49822;41.468;13.560;2023-09-12T02:06:09;6.82;;4.20;;;;;;;
63316;SPS30;49822;41.468;13.560;2023-09-12T02:08:35;6.65;;3.90;;;;;;;
63316;SPS30;49822;41.468;13.560;2023-09-12T02:11:01;8.65;;3.85;;;;;;;
63316;SPS30;49822;41.468;13.560;2023-09-12T02:13:27;9.20;;3.83;;;;;;;
63316;SPS30;49822;41.468;13.560;2023-09-12T02:16:00;10.27;;4.25;;;;;;;
63316;SPS30;49822;41.468;13.560;2023-09-12T02:18:28;7.95;;4.00;;;;;;;
63316;SPS30;49822;41.468;13.560;2023-09-12T02:20:54;8.45;;3.70;;;;;;;
63316;SPS30;49822;41.468;13.560;2023-09-12T02:23:21;7.32;;4.45;;;;;;;
63316;SPS30;49822;41.468;13.560;2023-09-12T02:25:47;7.18;;3.90;;;;;;;
63316;SPS30;49822;41.468;13.560;2023-09-12T02:28:13;10.98;;4.32;;;;;;;
63316;SPS30;49822;41.468;13.560;2023-09-12T02:30:42;7.40;;4.53;;;;;;;
63316;SPS30;49822;41.468;13.560;2023-09-12T02:33:08;11.52;;4.65;;;;;;;
63316;SPS30;49822;41.468;13.560;2023-09-12T02:35:34;10.63;;4.85;;;;;;;
63316;SPS30;49822;41.468;13.560;2023-09-12T02:38:05;12.68;;4.10;;;;;;;
63316;SPS30;49822;41.468;13.560;2023-09-12T02:40:31;9.93;;4.82;;;;;;;
63316;SPS30;49822;41.468;13.560;2023-09-12T02:42:57;7.82;;4.63;;;;;;;
63316;SPS30;49822;41.468;13.560;2023-09-12T02:45:24;9.20;;4.95;;;;;;;
63316;SPS30;49822;41.468;13.560;2023-09-12T02:47:52;9.90;;4.55;;;;;;;
63316;SPS30;49822;41.468;13.560;2023-09-12T02:50:18;6.13;;4.10;;;;;;;
63316;SPS30;49822;41.468;13.560;2023-09-12T02:52:44;8.70;;4.70;;;;;;;
63316;SPS30;49822;41.468;13.560;2023-09-12T02:55:11;7.20;;4.60;;;;;;;
63316;SPS30;49822;41.468;13.560;2023-09-12T02:57:37;7.50;;4.07;;;;;;;
63316;SPS30;49822;41.468;13.560;2023-09-12T03:00:03;11.15;;4.60;;;;;;;
63316;SPS30;49822;41.468;13.560;2023-09-12T03:02:32;12.00;;4.50;;;;;;;
63316;SPS30;49822;41.468;13.560;2023-09-12T03:04:59;7.78;;4.88;;;;;;;
63316;SPS30;49822;41.468;13.560;2023-09-12T03:07:27;11.73;;5.00;;;;;;;
63316;SPS30;49822;41.468;13.560;2023-09-12T03:13:42;7.10;;4.20;;;;;;;
63316;SPS30;49822;41.468;13.560;2023-09-12T03:16:12;10.93;;4.30;;;;;;;
63316;SPS30;49822;41.468;13.560;2023-09-12T03:18:39;7.97;;4.23;;;;;;;
63316;SPS30;49822;41.468;13.560;2023-09-12T03:24:38;8.85;;4.47;;;;;;;
63316;SPS30;49822;41.468;13.560;2023-09-12T03:27:04;7.50;;3.90;;;;;;;
63316;SPS30;49822;41.468;13.560;2023-09-12T03:29:31;7.47;;4.15;;;;;;;
63316;SPS30;49822;41.468;13.560;2023-09-12T03:31:57;8.50;;4.30;;;;;;;
63316;SPS30;49822;41.468;13.560;2023-09-12T03:34:24;7.97;;4.75;;;;;;;
63316;SPS30;49822;41.468;13.560;2023-09-12T03:36:50;9.88;;5.10;;;;;;;
63316;SPS30;49822;41.468;13.560;2023-09-12T03:39:16;6.22;;4.47;;;;;;;
63316;SPS30;49822;41.468;13.560;2023-09-12T03:41:42;6.43;;4.45;;;;;;;
63316;SPS30;49822;41.468;13.560;2023-09-12T03:44:08;8.38;;4.38;;;;;;;
63316;SPS30;49822;41.468;13.560;2023-09-12T03:46:34;7.85;;4.38;;;;;;;
63316;SPS30;49822;41.468;13.560;2023-09-12T03:49:00;8.75;;4.68;;;;;;;
63316;SPS30;49822;41.468;13.560;2023-09-12T03:51:26;8.18;;4.13;;;;;;;
63316;SPS30;49822;41.468;13.560;2023-09-12T03:53:53;10.10;;4.72;;;;;;;
63316;SPS30;49822;41.468;13.560;2023-09-12T03:56:19;7.50;;4.35;;;;;;;
63316;SPS30;49822;41.468;13.560;2023-09-12T04:09:20;8.98;;4.10;;;;;;;
63316;SPS30;49822;41.468;13.560;2023-09-12T04:11:46;11.50;;4.88;;;;;;;
63316;SPS30;49822;41.468;13.560;2023-09-12T04:14:13;7.85;;4.18;;;;;;;
63316;SPS30;49822;41.468;13.560;2023-09-12T04:16:40;6.72;;3.65;;;;;;;
63316;SPS30;49822;41.468;13.560;2023-09-12T04:19:07;8.38;;3.83;;;;;;;
63316;SPS30;49822;41.468;13.560;2023-09-12T04:21:33;6.10;;3.72;;;;;;;
63316;SPS30;49822;41.468;13.560;2023-09-12T04:27:47;6.90;;4.18;;;;;;;
63316;SPS30;49822;41.468;13.560;2023-09-12T04:45:32;7.43;;3.92;;;;;;;
63316;SPS30;49822;41.468;13.560;2023-09-12T04:48:01;10.02;;4.63;;;;;;;
63316;SPS30;49822;41.468;13.560;2023-09-12T04:50:28;8.73;;4.05;;;;;;;
63316;SPS30;49822;41.468;13.560;2023-09-12T04:52:54;7.60;;4.45;;;;;;;
63316;SPS30;49822;41.468;13.560;2023-09-12T04:55:21;7.82;;4.13;;;;;;;
63316;SPS30;49822;41.468;13.560;2023-09-12T04:57:47;8.30;;4.10;;;;;;;
63316;SPS30;49822;41.468;13.560;2023-09-12T05:00:14;7.85;;4.43;;;;;;;
63316;SPS30;49822;41.468;13.560;2023-09-12T05:02:40;10.00;;4.30;;;;;;;
63316;SPS30;49822;41.468;13.560;2023-09-12T05:05:07;10.85;;5.50;;;;;;;
63316;SPS30;49822;41.468;13.560;2023-09-12T05:07:33;8.75;;4.40;;;;;;;
63316;SPS30;49822;41.468;13.560;2023-09-12T05:09:59;12.75;;4.65;;;;;;;
63316;SPS30;49822;41.468;13.560;2023-09-12T05:12:26;7.63;;4.25;;;;;;;
63316;SPS30;49822;41.468;13.560;2023-09-12T05:14:52;12.77;;4.68;;;;;;;
63316;SPS30;49822;41.468;13.560;2023-09-12T05:17:18;7.38;;4.38;;;;;;;
63316;SPS30;49822;41.468;13.560;2023-09-12T05:19:44;7.60;;4.63;;;;;;;
63316;SPS30;49822;41.468;13.560;2023-09-12T05:22:11;13.38;;5.18;;;;;;;
63316;SPS30;49822;41.468;13.560;2023-09-12T05:24:37;14.30;;5.40;;;;;;;
63316;SPS30;49822;41.468;13.560;2023-09-12T05:27:03;11.48;;4.85;;;;;;;
63316;SPS30;49822;41.468;13.560;2023-09-12T05:29:31;9.05;;5.10;;;;;;;
63316;SPS30;49822;41.468;13.560;2023-09-12T05:31:57;17.55;;4.93;;;;;;;
63316;SPS30;49822;41.468;13.560;2023-09-12T05:34:23;9.85;;5.88;;;;;;;
63316;SPS30;49822;41.468;13.560;2023-09-12T05:36:49;10.88;;5.18;;;;;;;
63316;SPS30;49822;41.468;13.560;2023-09-12T05:39:15;10.80;;5.78;;;;;;;
63316;SPS30;49822;41.468;13.560;2023-09-12T05:41:41;9.70;;5.63;;;;;;;
63316;SPS30;49822;41.468;13.560;2023-09-12T05:44:08;9.63;;5.28;;;;;;;
63316;SPS30;49822;41.468;13.560;2023-09-12T05:46:35;10.80;;5.47;;;;;;;
63316;SPS30;49822;41.468;13.560;2023-09-12T05:49:02;10.10;;5.03;;;;;;;
63316;SPS30;49822;41.468;13.560;2023-09-12T05:51:29;10.00;;5.30;;;;;;;
63316;SPS30;49822;41.468;13.560;2023-09-12T05:53:56;11.63;;5.47;;;;;;;
63316;SPS30;49822;41.468;13.560;2023-09-12T05:56:22;13.05;;5.55;;;;;;;
63316;SPS30;49822;41.468;13.560;2023-09-12T05:58:48;10.88;;5.40;;;;;;;
63316;SPS30;49822;41.468;13.560;2023-09-12T06:01:16;8.10;;5.25;;;;;;;
63316;SPS30;49822;41.468;13.560;2023-09-12T06:03:42;10.75;;5.68;;;;;;;
63316;SPS30;49822;41.468;13.560;2023-09-12T06:06:08;11.48;;5.85;;;;;;;
63316;SPS30;49822;41.468;13.560;2023-09-12T06:08:35;12.93;;5.82;;;;;;;
63316;SPS30;49822;41.468;13.560;2023-09-12T06:11:01;8.98;;5.35;;;;;;;
63316;SPS30;49822;41.468;13.560;2023-09-12T06:13:27;15.60;;5.65;;;;;;;
63316;SPS30;49822;41.468;13.560;2023-09-12T06:15:53;10.00;;5.40;;;;;;;
63316;SPS30;49822;41.468;13.560;2023-09-12T06:18:19;10.20;;5.60;;;;;;;
63316;SPS30;49822;41.468;13.560;2023-09-12T06:20:45;10.55;;5.50;;;;;;;
63316;SPS30;49822;41.468;13.560;2023-09-12T06:33:29;9.45;;5.15;;;;;;;
63316;SPS30;49822;41.468;13.560;2023-09-12T06:35:55;11.15;;5.57;;;;;;;
63316;SPS30;49822;41.468;13.560;2023-09-12T06:38:21;11.98;;5.45;;;;;;;
63316;SPS30;49822;41.468;13.560;2023-09-12T06:40:48;9.70;;4.80;;;;;;;
63316;SPS30;49822;41.468;13.560;2023-09-12T06:43:15;13.35;;5.22;;;;;;;
63316;SPS30;49822;41.468;13.560;2023-09-12T06:45:42;8.38;;4.97;;;;;;;
63316;SPS30;49822;41.468;13.560;2023-09-12T06:48:08;8.93;;5.07;;;;;;;
63316;SPS30;49822;41.468;13.560;2023-09-12T06:50:35;7.00;;4.72;;;;;;;
63316;SPS30;49822;41.468;13.560;2023-09-12T06:53:03;10.13;;4.78;;;;;;;
63316;SPS30;49822;41.468;13.560;2023-09-12T06:55:32;7.55;;4.90;;;;;;;
63316;SPS30;49822;41.468;13.560;2023-09-12T06:57:58;8.18;;4.68;;;;;;;
63316;SPS30;49822;41.468;13.560;2023-09-12T07:00:25;11.25;;4.93;;;;;;;
63316;SPS30;49822;41.468;13.560;2023-09-12T07:02:52;12.40;;5.07;;;;;;;
63316;SPS30;49822;41.468;13.560;2023-09-12T07:05:21;9.75;;4.90;;;;;;;
63316;SPS30;49822;41.468;13.560;2023-09-12T07:07:55;11.57;;4.47;;;;;;;
63316;SPS30;49822;41.468;13.560;2023-09-12T07:10:45;13.52;;4.57;;;;;;;
63316;SPS30;49822;41.468;13.560;2023-09-12T07:13:36;10.82;;5.00;;;;;;;
63316;SPS30;49822;41.468;13.560;2023-09-12T07:16:26;10.23;;4.85;;;;;;;
63316;SPS30;49822;41.468;13.560;2023-09-12T07:19:06;8.95;;4.90;;;;;;;
63316;SPS30;49822;41.468;13.560;2023-09-12T07:21:34;8.02;;4.68;;;;;;;
63316;SPS30;49822;41.468;13.560;2023-09-12T07:24:04;8.32;;4.57;;;;;;;
63316;SPS30;49822;41.468;13.560;2023-09-12T07:26:34;11.35;;4.60;;;;;;;
63316;SPS30;49822;41.468;13.560;2023-09-12T07:29:00;8.23;;4.47;;;;;;;
63316;SPS30;49822;41.468;13.560;2023-09-12T07:31:30;7.88;;4.78;;;;;;;
63316;SPS30;49822;41.468;13.560;2023-09-12T07:33:58;9.10;;5.13;;;;;;;
63316;SPS30;49822;41.468;13.560;2023-09-12T07:36:24;9.45;;4.78;;;;;;;
63316;SPS30;49822;41.468;13.560;2023-09-12T07:38:50;10.07;;4.80;;;;;;;
63316;SPS30;49822;41.468;13.560;2023-09-12T07:41:27;10.32;;4.97;;;;;;;
63316;SPS30;49822;41.468;13.560;2023-09-12T07:44:21;13.35;;5.18;;;;;;;
63316;SPS30;49822;41.468;13.560;2023-09-12T07:46:47;9.90;;4.68;;;;;;;
63316;SPS30;49822;41.468;13.560;2023-09-12T07:49:13;11.07;;5.43;;;;;;;
63316;SPS30;49822;41.468;13.560;2023-09-12T07:51:40;8.05;;4.60;;;;;;;
63316;SPS30;49822;41.468;13.560;2023-09-12T07:54:05;9.23;;4.82;;;;;;;
63316;SPS30;49822;41.468;13.560;2023-09-12T07:56:31;12.80;;5.15;;;;;;;
63316;SPS30;49822;41.468;13.560;2023-09-12T07:58:58;9.55;;4.68;;;;;;;
63316;SPS30;49822;41.468;13.560;2023-09-12T08:01:24;12.27;;4.57;;;;;;;
63316;SPS30;49822;41.468;13.560;2023-09-12T08:03:50;10.13;;5.00;;;;;;;
63316;SPS30;49822;41.468;13.560;2023-09-12T08:06:16;8.82;;4.25;;;;;;;
63316;SPS30;49822;41.468;13.560;2023-09-12T08:08:42;12.30;;4.40;;;;;;;
63316;SPS30;49822;41.468;13.560;2023-09-12T08:11:08;8.57;;4.45;;;;;;;
63316;SPS30;49822;41.468;13.560;2023-09-12T08:13:34;10.57;;4.53;;;;;;;
63316;SPS30;49822;41.468;13.560;2023-09-12T08:16:00;7.88;;4.93;;;;;;;
63316;SPS30;49822;41.468;13.560;2023-09-12T08:18:28;11.15;;5.07;;;;;;;
63316;SPS30;49822;41.468;13.560;2023-09-12T08:20:56;12.10;;4.95;;;;;;;
63316;SPS30;49822;41.468;13.560;2023-09-12T08:23:22;8.88;;4.65;;;;;;;
63316;SPS30;49822;41.468;13.560;2023-09-12T08:25:49;9.90;;5.18;;;;;;;
63316;SPS30;49822;41.468;13.560;2023-09-12T08:28:15;9.07;;5.07;;;;;;;
63316;SPS30;49822;41.468;13.560;2023-09-12T08:30:43;10.13;;4.65;;;;;;;
63316;SPS30;49822;41.468;13.560;2023-09-12T08:33:10;7.82;;4.95;;;;;;;
63316;SPS30;49822;41.468;13.560;2023-09-12T08:35:37;8.05;;4.30;;;;;;;
63316;SPS30;49822;41.468;13.560;2023-09-12T08:38:03;6.90;;4.05;;;;;;;
63316;SPS30;49822;41.468;13.560;2023-09-12T08:40:30;8.15;;4.40;;;;;;;
63316;SPS30;49822;41.468;13.560;2023-09-12T08:42:57;7.78;;4.43;;;;;;;
63316;SPS30;49822;41.468;13.560;2023-09-12T08:45:24;10.73;;4.80;;;;;;;
63316;SPS30;49822;41.468;13.560;2023-09-12T08:47:52;7.47;;4.53;;;;;;;
63316;SPS30;49822;41.468;13.560;2023-09-12T08:50:20;11.50;;4.32;;;;;;;
63316;SPS30;49822;41.468;13.560;2023-09-12T08:52:49;14.30;;4.80;;;;;;;
63316;SPS30;49822;41.468;13.560;2023-09-12T08:55:17;7.75;;4.63;;;;;;;
63316;SPS30;49822;41.468;13.560;2023-09-12T08:57:44;10.75;;4.80;;;;;;;
63316;SPS30;49822;41.468;13.560;2023-09-12T09:00:16;10.93;;4.82;;;;;;;
63316;SPS30;49822;41.468;13.560;2023-09-12T09:02:45;7.97;;4.70;;;;;;;
63316;SPS30;49822;41.468;13.560;2023-09-12T09:05:12;8.18;;4.78;;;;;;;
63316;SPS30;49822;41.468;13.560;2023-09-12T09:07:39;9.38;;4.65;;;;;;;
63316;SPS30;49822;41.468;13.560;2023-09-12T09:10:14;12.00;;5.00;;;;;;;
63316;SPS30;49822;41.468;13.560;2023-09-12T09:12:45;10.45;;5.32;;;;;;;
63316;SPS30;49822;41.468;13.560;2023-09-12T09:15:23;11.23;;5.20;;;;;;;
63316;SPS30;49822;41.468;13.560;2023-09-12T09:17:54;6.93;;4.70;;;;;;;
63316;SPS30;49822;41.468;13.560;2023-09-12T09:20:29;14.25;;4.90;;;;;;;
63316;SPS30;49822;41.468;13.560;2023-09-12T09:25:33;12.35;;6.03;;;;;;;
63316;SPS30;49822;41.468;13.560;2023-09-12T09:28:21;8.23;;4.70;;;;;;;
63316;SPS30;49822;41.468;13.560;2023-09-12T09:30:49;9.00;;5.15;;;;;;;
63316;SPS30;49822;41.468;13.560;2023-09-12T09:33:18;15.45;;5.00;;;;;;;
63316;SPS30;49822;41.468;13.560;2023-09-12T09:35:48;13.43;;5.32;;;;;;;
63316;SPS30;49822;41.468;13.560;2023-09-12T09:38:14;10.82;;4.82;;;;;;;
63316;SPS30;49822;41.468;13.560;2023-09-12T09:40:44;8.38;;4.82;;;;;;;
63316;SPS30;49822;41.468;13.560;2023-09-12T09:43:10;7.45;;4.88;;;;;;;
63316;SPS30;49822;41.468;13.560;2023-09-12T09:45:43;7.95;;4.45;;;;;;;
63316;SPS30;49822;41.468;13.560;2023-09-12T09:48:17;8.65;;4.60;;;;;;;
63316;SPS30;49822;41.468;13.560;2023-09-12T09:50:46;11.50;;4.80;;;;;;;
63316;SPS30;49822;41.468;13.560;2023-09-12T09:53:12;13.98;;5.00;;;;;;;
63316;SPS30;49822;41.468;13.560;2023-09-12T09:55:38;11.10;;4.38;;;;;;;
63316;SPS30;49822;41.468;13.560;2023-09-12T09:58:08;10.85;;4.80;;;;;;;
63316;SPS30;49822;41.468;13.560;2023-09-12T10:00:38;9.38;;4.57;;;;;;;
63316;SPS30;49822;41.468;13.560;2023-09-12T10:03:07;10.00;;4.30;;;;;;;
63316;SPS30;49822;41.468;13.560;2023-09-12T10:05:35;9.63;;5.10;;;;;;;
63316;SPS30;49822;41.468;13.560;2023-09-12T10:08:03;12.25;;4.90;;;;;;;
63316;SPS30;49822;41.468;13.560;2023-09-12T10:10:34;8.27;;4.63;;;;;;;
63316;SPS30;49822;41.468;13.560;2023-09-12T10:13:01;10.13;;5.00;;;;;;;
63316;SPS30;49822;41.468;13.560;2023-09-12T10:15:30;10.40;;4.45;;;;;;;
63316;SPS30;49822;41.468;13.560;2023-09-12T10:18:00;10.88;;4.75;;;;;;;
63316;SPS30;49822;41.468;13.560;2023-09-12T10:20:48;9.32;;4.53;;;;;;;
63316;SPS30;49822;41.468;13.560;2023-09-12T10:23:39;10.38;;4.60;;;;;;;
63316;SPS30;49822;41.468;13.560;2023-09-12T10:26:12;9.18;;4.90;;;;;;;
63316;SPS30;49822;41.468;13.560;2023-09-12T10:28:40;10.23;;4.93;;;;;;;
63316;SPS30;49822;41.468;13.560;2023-09-12T10:31:07;10.02;;4.50;;;;;;;
63316;SPS30;49822;41.468;13.560;2023-09-12T10:33:36;8.85;;4.70;;;;;;;
63316;SPS30;49822;41.468;13.560;2023-09-12T10:36:05;11.52;;4.95;;;;;;;
63316;SPS30;49822;41.468;13.560;2023-09-12T10:38:35;7.90;;4.65;;;;;;;
63316;SPS30;49822;41.468;13.560;2023-09-12T10:41:09;8.50;;4.60;;;;;;;
63316;SPS30;49822;41.468;13.560;2023-09-12T10:46:05;9.60;;5.05;;;;;;;
63316;SPS30;49822;41.468;13.560;2023-09-12T10:48:32;8.80;;4.72;;;;;;;
63316;SPS30;49822;41.468;13.560;2023-09-12T10:51:00;9.07;;4.47;;;;;;;
63316;SPS30;49822;41.468;13.560;2023-09-12T10:53:29;14.23;;4.72;;;;;;;
63316;SPS30;49822;41.468;13.560;2023-09-12T10:55:57;8.90;;4.43;;;;;;;
63316;SPS30;49822;41.468;13.560;2023-09-12T10:58:25;6.35;;4.03;;;;;;;
63316;SPS30;49822;41.468;13.560;2023-09-12T11:03:52;7.70;;4.70;;;;;;;
63316;SPS30;49822;41.468;13.560;2023-09-12T11:06:36;10.48;;4.60;;;;;;;
63316;SPS30;49822;41.468;13.560;2023-09-12T11:09:19;7.65;;4.68;;;;;;;
63316;SPS30;49822;41.468;13.560;2023-09-12T11:11:48;19.52;;4.90;;;;;;;
63316;SPS30;49822;41.468;13.560;2023-09-12T11:14:15;8.18;;4.05;;;;;;;
63316;SPS30;49822;41.468;13.560;2023-09-12T11:16:42;6.80;;4.13;;;;;;;
63316;SPS30;49822;41.468;13.560;2023-09-12T11:19:18;8.98;;3.95;;;;;;;
63316;SPS30;49822;41.468;13.560;2023-09-12T11:21:54;9.50;;4.30;;;;;;;
63316;SPS30;49822;41.468;13.560;2023-09-12T11:24:23;6.72;;4.30;;;;;;;
63316;SPS30;49822;41.468;13.560;2023-09-12T11:29:35;8.13;;4.28;;;;;;;
63316;SPS30;49822;41.468;13.560;2023-09-12T11:32:03;7.95;;3.95;;;;;;;
63316;SPS30;49822;41.468;13.560;2023-09-12T11:34:42;7.28;;3.88;;;;;;;
63316;SPS30;49822;41.468;13.560;2023-09-12T11:37:10;5.38;;3.35;;;;;;;
63316;SPS30;49822;41.468;13.560;2023-09-12T11:39:47;8.75;;3.85;;;;;;;
63316;SPS30;49822;41.468;13.560;2023-09-12T11:42:15;7.82;;3.88;;;;;;;
63316;SPS30;49822;41.468;13.560;2023-09-12T11:44:42;8.10;;4.10;;;;;;;
63316;SPS30;49822;41.468;13.560;2023-09-12T11:47:10;9.27;;4.07;;;;;;;
63316;SPS30;49822;41.468;13.560;2023-09-12T11:49:40;10.35;;4.60;;;;;;;
63316;SPS30;49822;41.468;13.560;2023-09-12T11:52:11;7.50;;4.10;;;;;;;
63316;SPS30;49822;41.468;13.560;2023-09-12T11:54:39;8.80;;4.00;;;;;;;
63316;SPS30;49822;41.468;13.560;2023-09-12T11:57:09;7.80;;4.45;;;;;;;
63316;SPS30;49822;41.468;13.560;2023-09-12T11:59:37;5.72;;3.60;;;;;;;
63316;SPS30;49822;41.468;13.560;2023-09-12T12:02:07;6.47;;3.67;;;;;;;
63316;SPS30;49822;41.468;13.560;2023-09-12T12:04:35;8.88;;4.07;;;;;;;
63316;SPS30;49822;41.468;13.560;2023-09-12T12:07:02;10.70;;4.25;;;;;;;
63316;SPS30;49822;41.468;13.560;2023-09-12T12:09:31;7.20;;3.90;;;;;;;
63316;SPS30;49822;41.468;13.560;2023-09-12T12:12:13;7.43;;4.25;;;;;;;
63316;SPS30;49822;41.468;13.560;2023-09-12T12:14:40;9.32;;3.60;;;;;;;
63316;SPS30;49822;41.468;13.560;2023-09-12T12:17:10;8.63;;4.57;;;;;;;
63316;SPS30;49822;41.468;13.560;2023-09-12T12:22:04;8.63;;4.00;;;;;;;
63316;SPS30;49822;41.468;13.560;2023-09-12T12:24:38;6.88;;4.10;;;;;;;
63316;SPS30;49822;41.468;13.560;2023-09-12T12:27:07;8.20;;3.80;;;;;;;
63316;SPS30;49822;41.468;13.560;2023-09-12T12:29:36;8.13;;3.85;;;;;;;
63316;SPS30;49822;41.468;13.560;2023-09-12T12:32:05;5.10;;3.42;;;;;;;
63316;SPS30;49822;41.468;13.560;2023-09-12T12:34:31;10.20;;3.35;;;;;;;
63316;SPS30;49822;41.468;13.560;2023-09-12T12:36:57;7.90;;3.40;;;;;;;
63316;SPS30;49822;41.468;13.560;2023-09-12T12:39:23;5.40;;3.22;;;;;;;
63316;SPS30;49822;41.468;13.560;2023-09-12T12:41:52;7.65;;3.38;;;;;;;
63316;SPS30;49822;41.468;13.560;2023-09-12T12:44:20;7.32;;3.22;;;;;;;
63316;SPS30;49822;41.468;13.560;2023-09-12T12:46:51;8.05;;3.58;;;;;;;
63316;SPS30;49822;41.468;13.560;2023-09-12T12:49:18;6.90;;3.75;;;;;;;
63316;SPS30;49822;41.468;13.560;2023-09-12T12:51:45;7.80;;3.65;;;;;;;
63316;SPS30;49822;41.468;13.560;2023-09-12T12:54:13;6.75;;3.53;;;;;;;
63316;SPS30;49822;41.468;13.560;2023-09-12T12:56:40;6.28;;3.67;;;;;;;
63316;SPS30;49822;41.468;13.560;2023-09-12T12:59:08;8.48;;4.22;;;;;;;
63316;SPS30;49822;41.468;13.560;2023-09-12T13:01:36;8.10;;4.22;;;;;;;
63316;SPS30;49822;41.468;13.560;2023-09-12T13:04:06;10.50;;3.60;;;;;;;
63316;SPS30;49822;41.468;13.560;2023-09-12T13:06:39;7.82;;3.28;;;;;;;
63316;SPS30;49822;41.468;13.560;2023-09-12T13:09:05;5.75;;3.80;;;;;;;
63316;SPS30;49822;41.468;13.560;2023-09-12T13:11:33;4.30;;2.63;;;;;;;
63316;SPS30;49822;41.468;13.560;2023-09-12T13:14:08;7.45;;4.10;;;;;;;
63316;SPS30;49822;41.468;13.560;2023-09-12T13:17:18;8.77;;4.53;;;;;;;
63316;SPS30;49822;41.468;13.560;2023-09-12T13:19:44;10.00;;3.95;;;;;;;
63316;SPS30;49822;41.468;13.560;2023-09-12T13:22:12;7.68;;4.50;;;;;;;
63316;SPS30;49822;41.468;13.560;2023-09-12T13:24:39;7.22;;4.15;;;;;;;
63316;SPS30;49822;41.468;13.560;2023-09-12T13:27:05;9.25;;4.70;;;;;;;
63316;SPS30;49822;41.468;13.560;2023-09-12T13:29:31;6.28;;4.40;;;;;;;
63316;SPS30;49822;41.468;13.560;2023-09-12T13:31:57;11.38;;4.85;;;;;;;
63316;SPS30;49822;41.468;13.560;2023-09-12T13:34:23;10.70;;3.83;;;;;;;
63316;SPS30;49822;41.468;13.560;2023-09-12T13:36:50;7.95;;3.85;;;;;;;
63316;SPS30;49822;41.468;13.560;2023-09-12T13:39:16;7.93;;4.38;;;;;;;
63316;SPS30;49822;41.468;13.560;2023-09-12T13:41:43;9.27;;4.10;;;;;;;
63316;SPS30;49822;41.468;13.560;2023-09-12T13:44:10;8.07;;4.05;;;;;;;
63316;SPS30;49822;41.468;13.560;2023-09-12T13:46:36;5.80;;3.70;;;;;;;
63316;SPS30;49822;41.468;13.560;2023-09-12T13:49:02;8.65;;4.22;;;;;;;
63316;SPS30;49822;41.468;13.560;2023-09-12T13:51:30;6.78;;3.80;;;;;;;
63316;SPS30;49822;41.468;13.560;2023-09-12T13:53:56;9.55;;4.57;;;;;;;
63316;SPS30;49822;41.468;13.560;2023-09-12T13:56:22;5.10;;3.60;;;;;;;
63316;SPS30;49822;41.468;13.560;2023-09-12T13:58:48;7.40;;3.80;;;;;;;
63316;SPS30;49822;41.468;13.560;2023-09-12T14:01:16;9.25;;4.63;;;;;;;
63316;SPS30;49822;41.468;13.560;2023-09-12T14:03:43;6.97;;3.83;;;;;;;
63316;SPS30;49822;41.468;13.560;2023-09-12T14:06:09;6.50;;3.85;;;;;;;
63316;SPS30;49822;41.468;13.560;2023-09-12T14:08:35;4.72;;3.38;;;;;;;
63316;SPS30;49822;41.468;13.560;2023-09-12T14:11:02;7.72;;3.72;;;;;;;
63316;SPS30;49822;41.468;13.560;2023-09-12T14:13:28;6.07;;3.72;;;;;;;
63316;SPS30;49822;41.468;13.560;2023-09-12T14:15:54;8.85;;3.67;;;;;;;
63316;SPS30;49822;41.468;13.560;2023-09-12T14:18:20;10.10;;3.97;;;;;;;
63316;SPS30;49822;41.468;13.560;2023-09-12T14:20:46;6.50;;3.53;;;;;;;
63316;SPS30;49822;41.468;13.560;2023-09-12T14:23:12;8.40;;3.45;;;;;;;
63316;SPS30;49822;41.468;13.560;2023-09-12T14:25:38;5.35;;3.33;;;;;;;
63316;SPS30;49822;41.468;13.560;2023-09-12T14:28:04;10.80;;3.80;;;;;;;
63316;SPS30;49822;41.468;13.560;2023-09-12T14:30:31;6.78;;3.75;;;;;;;
63316;SPS30;49822;41.468;13.560;2023-09-12T14:33:04;8.27;;3.55;;;;;;;
63316;SPS30;49822;41.468;13.560;2023-09-12T14:35:30;9.48;;3.17;;;;;;;
63316;SPS30;49822;41.468;13.560;2023-09-12T14:37:56;6.38;;3.42;;;;;;;
63316;SPS30;49822;41.468;13.560;2023-09-12T14:40:25;9.57;;4.50;;;;;;;
63316;SPS30;49822;41.468;13.560;2023-09-12T14:42:52;8.40;;3.08;;;;;;;
63316;SPS30;49822;41.468;13.560;2023-09-12T14:45:20;6.00;;3.00;;;;;;;
63316;SPS30;49822;41.468;13.560;2023-09-12T14:47:53;6.72;;3.25;;;;;;;
63316;SPS30;49822;41.468;13.560;2023-09-12T14:50:22;9.80;;3.00;;;;;;;
63316;SPS30;49822;41.468;13.560;2023-09-12T14:52:49;5.70;;3.03;;;;;;;
63316;SPS30;49822;41.468;13.560;2023-09-12T14:55:16;4.43;;3.08;;;;;;;
63316;SPS30;49822;41.468;13.560;2023-09-12T14:57:42;4.32;;2.63;;;;;;;
63316;SPS30;49822;41.468;13.560;2023-09-12T15:00:09;4.45;;2.75;;;;;;;
63316;SPS30;49822;41.468;13.560;2023-09-12T15:02:37;5.38;;3.17;;;;;;;
63316;SPS30;49822;41.468;13.560;2023-09-12T15:05:03;8.38;;3.28;;;;;;;
63316;SPS30;49822;41.468;13.560;2023-09-12T15:07:30;7.43;;3.50;;;;;;;
63316;SPS30;49822;41.468;13.560;2023-09-12T15:09:57;10.38;;3.17;;;;;;;
63316;SPS30;49822;41.468;13.560;2023-09-12T15:12:23;7.40;;3.33;;;;;;;